Time;durP1;ratioP1;P1;durP2;ratioP2;P2;SDS_P1;SDS_P2;PMS_P1;PMS_P2;Temp;Humidity;BMP_temperature;BMP_pressure;BME280_temperature;BME280_humidity;BME280_pressure;Samples;Min_cycle;Max_cycle;Signal;HPM_P1;HPM_P2
2021/11/23 00:01:50;;;;;;;18.33;11.68;;;;;;;4.24;74.89;101325.19;4976588;28;20054;-63
2021/11/23 00:04:21;;;;;;;21.17;12.25;;;;;;;4.23;74.77;101322.50;5019121;23;20057;-55
2021/11/23 00:06:52;;;;;;;18.33;11.02;;;;;;;4.23;75.13;101325.06;4996309;28;20040;-54
2021/11/23 00:09:23;;;;;;;17.20;12.23;;;;;;;4.23;74.86;101325.06;5012361;28;20050;-54
2021/11/23 00:11:54;;;;;;;19.67;10.88;;;;;;;4.23;74.61;101327.63;4995799;28;20069;-54
2021/11/23 00:14:28;;;;;;;19.77;10.95;;;;;;;4.21;74.35;101324.06;4995953;28;20096;-55
2021/11/23 00:17:05;;;;;;;15.90;10.68;;;;;;;4.20;74.60;101323.22;5028865;28;20379;-54
2021/11/23 00:19:36;;;;;;;20.23;10.93;;;;;;;4.20;74.67;101327.47;5012281;28;20042;-54
2021/11/23 00:22:07;;;;;;;17.20;10.13;;;;;;;4.18;74.67;101327.34;4995764;28;20034;-54
2021/11/23 00:24:43;;;;;;;15.68;9.93;;;;;;;4.19;74.87;101336.81;5013368;28;20129;-54
2021/11/23 00:27:16;;;;;;;18.90;10.88;;;;;;;4.18;74.55;101329.03;5013723;28;20168;-55
2021/11/23 00:29:47;;;;;;;23.80;10.88;;;;;;;4.18;74.87;101331.63;5013506;28;20069;-54
2021/11/23 00:32:20;;;;;;;19.50;10.70;;;;;;;4.18;74.41;101336.75;5013622;28;20091;-54
2021/11/23 00:34:52;;;;;;;20.35;9.73;;;;;;;4.16;74.76;101334.06;5012575;28;20038;-54
2021/11/23 00:37:20;;;;;;;16.90;10.85;;;;;;;4.15;74.46;101334.84;5012036;28;20034;-55
2021/11/23 00:39:55;;;;;;;17.42;10.38;;;;;;;4.15;74.43;101337.41;5012042;28;20042;-54
2021/11/23 00:42:31;;;;;;;19.23;10.45;;;;;;;4.15;74.26;101336.53;5012245;28;20034;-55
2021/11/23 00:45:04;;;;;;;16.98;9.70;;;;;;;4.14;74.67;101333.06;5012624;28;20393;-54
2021/11/23 00:47:38;;;;;;;16.98;9.80;;;;;;;4.13;74.24;101330.44;5013532;28;20042;-55
2021/11/23 00:50:04;;;;;;;15.40;9.05;;;;;;;4.13;74.38;101323.59;5013336;28;20125;-54
2021/11/23 00:52:40;;;;;;;18.48;11.60;;;;;;;4.14;74.75;101329.63;5011946;28;20038;-54
2021/11/23 00:55:07;;;;;;;15.45;9.88;;;;;;;4.13;74.45;101331.28;5013785;28;20037;-54
2021/11/23 00:57:38;;;;;;;15.85;10.00;;;;;;;4.13;74.65;101321.03;4999313;28;20124;-54
2021/11/23 01:00:10;;;;;;;14.93;9.57;;;;;;;4.13;75.00;101320.16;4998949;28;20041;-55
2021/11/23 01:02:41;;;;;;;17.17;11.40;;;;;;;4.14;75.06;101324.50;5032286;28;20096;-55
2021/11/23 01:05:07;;;;;;;14.07;9.32;;;;;;;4.10;74.51;101326.00;4999083;28;20050;-55
2021/11/23 01:07:39;;;;;;;17.15;10.00;;;;;;;4.10;74.27;101320.88;5016623;28;20033;-54
2021/11/23 01:10:11;;;;;;;24.20;11.38;;;;;;;4.09;74.35;101313.97;5015497;28;20100;-54
2021/11/23 01:12:37;;;;;;;14.02;9.32;;;;;;;4.08;74.86;101323.31;5016730;28;20030;-54
2021/11/23 01:15:12;;;;;;;15.75;8.90;;;;;;;4.08;74.56;101320.75;5016539;28;20057;-54
2021/11/23 01:17:43;;;;;;;14.63;10.07;;;;;;;4.08;74.77;101322.44;5016601;28;20030;-55
2021/11/23 01:20:14;;;;;;;17.17;10.05;;;;;;;4.07;74.36;101311.28;5015293;28;20505;-54
2021/11/23 01:22:48;;;;;;;16.55;10.23;;;;;;;4.08;74.28;101322.44;5014987;28;20049;-54
2021/11/23 01:25:21;;;;;;;18.55;11.82;;;;;;;4.07;74.42;101311.28;5016576;28;20074;-54
2021/11/23 01:27:55;;;;;;;14.18;10.45;;;;;;;4.06;74.63;101306.94;5015321;28;20037;-54
2021/11/23 01:30:26;;;;;;;17.02;9.63;;;;;;;4.06;74.25;101313.75;5016242;28;20497;-55
2021/11/23 01:32:54;;;;;;;16.85;10.15;;;;;;;4.04;74.66;101312.78;5031253;28;20037;-54
2021/11/23 01:35:28;;;;;;;15.30;10.48;;;;;;;4.04;74.25;101315.34;5016151;28;20581;-54
2021/11/23 01:37:53;;;;;;;16.40;11.07;;;;;;;4.02;74.78;101304.09;5014915;28;20049;-54
2021/11/23 01:40:24;;;;;;;18.63;11.65;;;;;;;4.00;74.46;101306.56;5016356;28;20781;-54
2021/11/23 01:42:58;;;;;;;20.05;13.35;;;;;;;3.99;74.05;101316.72;5016140;28;20034;-54
2021/11/23 01:45:30;;;;;;;22.67;13.80;;;;;;;3.99;74.08;101316.72;4998410;28;20045;-54
2021/11/23 01:47:58;;;;;;;21.83;13.38;;;;;;;3.98;74.32;101313.28;4998252;28;20133;-54
2021/11/23 01:50:31;;;;;;;18.73;13.23;;;;;;;3.98;74.05;101320.97;4998666;28;20069;-54
2021/11/23 01:53:06;;;;;;;20.20;13.50;;;;;;;3.95;73.81;101319.13;5014507;28;20030;-55
2021/11/23 01:55:42;;;;;;;18.88;13.57;;;;;;;3.93;74.33;101323.25;5016085;28;20037;-54
2021/11/23 01:58:13;;;;;;;22.55;11.77;;;;;;;3.93;74.18;101313.00;5015545;28;20038;-54
2021/11/23 02:00:47;;;;;;;14.50;10.43;;;;;;;3.94;74.44;101316.44;5015749;28;20041;-54
2021/11/23 02:03:18;;;;;;;;;;;;;;;3.93;74.22;101318.13;5015926;28;20064;-53
2021/11/23 02:05:47;;;;;;;17.50;11.02;;;;;;;3.92;74.77;101311.22;5014263;28;19918;-54
2021/11/23 02:08:16;;;;;;;15.30;10.73;;;;;;;3.90;74.68;101310.22;5015495;28;20489;-55
2021/11/23 02:10:52;;;;;;;20.25;11.05;;;;;;;3.90;74.63;101309.31;4997954;28;20056;-53
2021/11/23 02:13:21;;;;;;;15.70;10.50;;;;;;;3.91;74.49;101316.22;5014270;28;20076;-54
2021/11/23 02:15:46;;;;;;;17.88;11.68;;;;;;;3.91;73.89;101313.66;5015524;28;20517;-54
2021/11/23 02:18:23;;;;;;;17.98;11.80;;;;;;;3.91;74.16;101305.97;5014224;28;20038;-54
2021/11/23 02:20:54;;;;;;;17.88;11.40;;;;;;;3.92;74.14;101311.22;5015291;28;20041;-54
2021/11/23 02:23:25;;;;;;;17.58;10.65;;;;;;;3.92;73.88;101316.34;4998501;28;20041;-54
2021/11/23 02:25:51;;;;;;;21.60;10.80;;;;;;;3.91;74.49;101313.66;4998021;28;20042;-55
2021/11/23 02:28:27;;;;;;;20.10;10.63;;;;;;;3.91;74.26;101316.22;5015415;28;20038;-54
2021/11/23 02:30:57;;;;;;;19.15;13.02;;;;;;;3.91;74.41;101316.22;5013868;28;20077;-54
2021/11/23 02:33:32;;;;;;;15.50;10.00;;;;;;;3.89;74.23;101308.44;5014970;28;20030;-54
2021/11/23 02:36:07;;;;;;;14.60;10.57;;;;;;;3.90;74.48;101309.31;5015339;28;20096;-54
2021/11/23 02:38:42;;;;;;;19.20;11.52;;;;;;;3.89;74.18;101311.00;5014071;28;20389;-54
2021/11/23 02:41:13;;;;;;;16.17;11.18;;;;;;;3.87;74.17;101302.34;5014827;28;20064;-54
2021/11/23 02:43:46;;;;;;;17.25;10.45;;;;;;;3.85;74.20;101293.66;5029990;28;20358;-54
2021/11/23 02:46:23;;;;;;;16.35;10.77;;;;;;;3.85;74.08;101298.78;5030410;28;20077;-54
2021/11/23 02:48:54;;;;;;;17.75;11.20;;;;;;;3.83;74.49;101295.22;5015008;28;20026;-54
2021/11/23 02:51:27;;;;;;;17.15;10.02;;;;;;;3.82;73.91;101296.00;4997498;28;20092;-54
2021/11/23 02:53:58;;;;;;;18.20;11.70;;;;;;;3.81;73.84;101300.28;5014725;28;20041;-54
2021/11/23 02:56:32;;;;;;;18.35;10.20;;;;;;;3.80;74.03;101290.81;5013470;28;20038;-54
2021/11/23 02:59:01;;;;;;;16.83;10.80;;;;;;;3.79;74.29;101294.16;5013569;28;20033;-54
2021/11/23 03:01:32;;;;;;;16.67;9.95;;;;;;;3.79;74.36;101294.16;5013379;28;20500;-54
2021/11/23 03:04:00;;;;;;;16.95;11.35;;;;;;;3.80;74.41;101289.94;5013390;28;20122;-54
2021/11/23 03:06:31;;;;;;;14.10;9.90;;;;;;;3.79;74.24;101285.59;5014503;28;20034;-54
2021/11/23 03:09:02;;;;;;;18.25;11.00;;;;;;;3.79;74.01;101288.16;5013195;28;20143;-54
2021/11/23 03:11:39;;;;;;;18.88;13.07;;;;;;;3.78;74.07;101294.94;4997030;28;20041;-54
2021/11/23 03:14:07;;;;;;;16.83;12.18;;;;;;;3.77;73.76;101294.84;5013345;28;20072;-54
2021/11/23 03:16:41;;;;;;;19.60;12.23;;;;;;;3.76;74.29;101288.81;5014300;28;20048;-54
2021/11/23 03:19:12;;;;;;;15.77;11.00;;;;;;;3.75;74.21;101292.19;5012599;28;20025;-53
2021/11/23 03:21:44;;;;;;;16.08;10.68;;;;;;;3.75;73.92;101299.88;4996738;28;20060;-54
2021/11/23 03:24:12;;;;;;;16.05;11.32;;;;;;;3.73;74.23;101295.44;4996506;28;20038;-54
2021/11/23 03:26:46;;;;;;;16.17;11.40;;;;;;;3.74;74.17;101298.09;5014384;28;20109;-54
2021/11/23 03:29:11;;;;;;;18.42;12.50;;;;;;;3.74;74.04;101292.97;5012790;28;20045;-54
2021/11/23 03:31:45;;;;;;;18.85;13.00;;;;;;;3.74;74.03;101294.66;5014070;28;20030;-54
2021/11/23 03:34:21;;;;;;;21.50;13.30;;;;;;;3.73;73.99;101298.91;5012892;28;20041;-54
2021/11/23 03:36:52;;;;;;;21.42;12.00;;;;;;;3.73;73.73;101298.00;5014257;28;20034;-54
2021/11/23 03:39:23;;;;;;;19.13;10.65;;;;;;;3.70;74.05;101293.59;4996419;28;20092;-54
2021/11/23 03:41:57;;;;;;;15.77;11.70;;;;;;;3.71;74.15;101286.75;4996602;28;20104;-54
2021/11/23 03:44:29;;;;;;;17.83;12.13;;;;;;;3.69;73.76;101288.34;5012711;28;20056;-55
2021/11/23 03:47:01;;;;;;;17.17;11.75;;;;;;;3.69;73.82;101296.03;5029782;28;20045;-54
2021/11/23 03:49:32;;;;;;;17.25;11.70;;;;;;;3.68;73.58;101296.81;5013904;28;20030;-54
2021/11/23 03:52:03;;;;;;;15.80;11.95;;;;;;;3.66;73.75;101295.03;5014046;28;20087;-55
2021/11/23 03:54:34;;;;;;;19.48;12.32;;;;;;;3.66;74.19;101289.03;5013791;28;20497;-55
2021/11/23 03:57:09;;;;;;;19.38;12.30;;;;;;;3.65;73.67;101290.72;4996188;28;20088;-54
2021/11/23 03:59:46;;;;;;;18.27;11.35;;;;;;;3.64;73.93;101281.25;5014194;28;20038;-54
2021/11/23 04:02:13;;;;;;;20.30;12.85;;;;;;;3.63;73.77;101289.75;5013759;28;20091;-54
2021/11/23 04:04:45;;;;;;;21.02;12.60;;;;;;;3.64;73.99;101294.09;5012387;28;20100;-54
2021/11/23 04:07:15;;;;;;;18.55;12.52;;;;;;;3.64;74.08;101294.09;5013716;28;20505;-55
2021/11/23 04:09:47;;;;;;;19.83;13.35;;;;;;;3.64;73.95;101290.63;4996328;28;20115;-54
2021/11/23 04:12:21;;;;;;;19.13;13.70;;;;;;;3.63;74.21;101294.88;4996018;28;20574;-54
2021/11/23 04:14:52;;;;;;;;;;;;;;;3.62;73.58;101297.31;5014099;28;20034;-54
2021/11/23 04:17:23;;;;;;;18.63;12.98;;;;;;;3.60;73.52;101292.09;5012553;28;19920;-55
2021/11/23 04:19:55;;;;;;;21.17;13.52;;;;;;;3.60;73.97;101294.66;5013661;28;20046;-54
2021/11/23 04:22:29;;;;;;;20.80;12.98;;;;;;;3.60;73.77;101297.22;5012036;28;20046;-54
2021/11/23 04:24:57;;;;;;;18.63;13.23;;;;;;;3.60;74.41;101289.53;5013767;28;20203;-54
2021/11/23 04:27:33;;;;;;;19.10;13.20;;;;;;;3.60;73.99;101286.97;4995883;28;20037;-54
2021/11/23 04:30:02;;;;;;;20.85;14.30;;;;;;;3.62;73.77;101294.75;5014467;28;20034;-55
2021/11/23 04:32:30;;;;;;;19.52;12.55;;;;;;;3.60;74.04;101291.19;5000018;28;20550;-54
2021/11/23 04:35:01;;;;;;;19.13;13.43;;;;;;;3.59;73.85;101289.41;5017307;28;20029;-55
2021/11/23 04:37:29;;;;;;;23.63;13.32;;;;;;;3.60;73.58;101292.09;5016143;28;20117;-54
2021/11/23 04:40:04;;;;;;;20.70;15.02;;;;;;;3.60;73.74;101286.06;5016073;28;20041;-54
2021/11/23 04:42:38;;;;;;;20.92;14.93;;;;;;;3.59;74.00;101297.13;5017491;28;20141;-54
2021/11/23 04:45:10;;;;;;;21.90;13.95;;;;;;;3.60;73.81;101301.44;5017074;28;20033;-54
2021/11/23 04:47:46;;;;;;;19.33;14.30;;;;;;;3.58;73.95;101295.38;5032422;28;20448;-54
2021/11/23 04:50:13;;;;;;;21.80;15.18;;;;;;;3.58;73.87;101300.50;5017393;28;20448;-54
2021/11/23 04:52:39;;;;;;;24.70;15.45;;;;;;;3.57;73.77;101307.28;4999402;28;20497;-56
2021/11/23 04:55:13;;;;;;;22.15;14.00;;;;;;;3.56;73.35;101302.06;4999427;28;20516;-54
2021/11/23 04:57:40;;;;;;;22.25;14.23;;;;;;;3.56;73.81;101307.19;5016864;28;20034;-55
2021/11/23 05:00:17;;;;;;;22.42;14.55;;;;;;;3.54;73.82;101306.19;4999904;28;20042;-54
2021/11/23 05:02:45;;;;;;;23.13;14.38;;;;;;;3.53;73.41;101299.31;5017133;28;20042;-55
2021/11/23 05:05:13;;;;;;;19.42;14.00;;;;;;;3.53;74.04;101301.88;4998974;28;20477;-54
2021/11/23 05:07:44;;;;;;;24.52;14.05;;;;;;;3.50;73.87;101302.56;4999072;28;20612;-54
2021/11/23 05:10:18;;;;;;;24.42;15.38;;;;;;;3.49;73.56;101301.66;5031950;28;20077;-55
2021/11/23 05:12:44;;;;;;;;;;;;;;;3.49;73.36;101303.34;5016251;28;20056;-55
2021/11/23 05:15:15;;;;;;;22.50;15.15;;;;;;;3.47;73.41;101295.53;5016411;28;19928;-54
2021/11/23 05:17:46;;;;;;;21.77;13.68;;;;;;;3.48;73.73;101297.31;4999123;28;20045;-54
2021/11/23 05:20:17;;;;;;;20.52;14.70;;;;;;;3.46;73.25;101303.16;5015312;28;20501;-54
2021/11/23 05:22:51;;;;;;;19.67;13.32;;;;;;;3.46;73.43;101298.88;5016636;28;20060;-55
2021/11/23 05:25:24;;;;;;;21.42;14.68;;;;;;;3.45;73.72;101286.84;5015767;28;20042;-54
2021/11/23 05:27:58;;;;;;;22.00;14.45;;;;;;;3.45;73.70;101291.13;4998776;28;20041;-54
2021/11/23 05:30:32;;;;;;;24.25;15.07;;;;;;;3.44;74.05;101290.22;4999048;28;20501;-55
2021/11/23 05:32:58;;;;;;;24.00;14.70;;;;;;;3.45;73.70;101291.13;4998543;28;20044;-54
2021/11/23 05:35:31;;;;;;;22.05;15.32;;;;;;;3.44;73.87;101285.09;5016368;28;20037;-54
2021/11/23 05:38:02;;;;;;;22.13;15.23;;;;;;;3.44;73.77;101292.78;5015020;28;20038;-54
2021/11/23 05:40:28;;;;;;;24.52;15.40;;;;;;;3.43;73.52;101287.56;4999007;28;20065;-54
2021/11/23 05:42:53;;;;;;;21.45;15.02;;;;;;;3.42;73.65;101285.78;5015950;28;20477;-55
2021/11/23 05:45:19;;;;;;;23.95;15.40;;;;;;;3.42;73.28;101290.91;5016122;28;20080;-55
2021/11/23 05:47:44;;;;;;;20.75;14.45;;;;;;;3.40;73.64;101290.81;5015877;28;20038;-54
2021/11/23 05:50:20;;;;;;;24.27;13.90;;;;;;;3.42;73.70;101293.47;5015936;28;20481;-54
2021/11/23 05:52:48;;;;;;;19.55;14.75;;;;;;;3.43;74.19;101295.25;5014881;28;20041;-54
2021/11/23 05:55:13;;;;;;;22.70;14.43;;;;;;;3.45;73.77;101288.56;5014884;28;20122;-54
2021/11/23 05:57:39;;;;;;;20.95;13.98;;;;;;;3.45;73.79;101291.13;5015826;28;20073;-55
2021/11/23 06:00:10;;;;;;;24.58;15.65;;;;;;;3.45;73.81;101286.00;5015978;28;20551;-54
2021/11/23 06:02:42;;;;;;;21.92;15.95;;;;;;;3.46;73.66;101298.03;5014766;28;20117;-54
2021/11/23 06:05:13;;;;;;;24.45;15.68;;;;;;;3.47;73.53;101292.97;4998518;28;20108;-54
2021/11/23 06:07:46;;;;;;;22.48;13.52;;;;;;;3.49;73.54;101285.41;4998346;28;20045;-55
2021/11/23 06:10:19;;;;;;;22.70;15.50;;;;;;;3.49;73.70;101286.28;5015787;28;20041;-54
2021/11/23 06:12:53;;;;;;;21.98;15.38;;;;;;;3.51;74.29;101288.94;5014331;28;20053;-54
2021/11/23 06:15:28;;;;;;;19.15;14.63;;;;;;;3.51;74.03;101296.63;5030619;28;20034;-54
2021/11/23 06:18:02;;;;;;;21.08;15.20;;;;;;;3.52;73.78;101303.53;5014440;28;20042;-54
2021/11/23 06:20:39;;;;;;;21.88;15.25;;;;;;;3.53;73.91;101305.31;5015871;28;20504;-55
2021/11/23 06:23:18;;;;;;;21.42;14.52;;;;;;;3.53;73.71;101300.16;4998128;28;20061;-55
2021/11/23 06:25:50;;;;;;;19.48;14.45;;;;;;;3.54;74.20;101307.06;5014386;28;20069;-54
2021/11/23 06:28:24;;;;;;;21.40;14.93;;;;;;;3.56;73.78;101302.06;5015316;28;20045;-54
2021/11/23 06:30:55;;;;;;;24.90;14.90;;;;;;;3.57;73.92;101311.53;5014187;28;20034;-54
2021/11/23 06:33:26;;;;;;;21.65;13.68;;;;;;;3.58;74.11;101316.75;5015218;28;20156;-55
2021/11/23 06:35:57;;;;;;;20.80;14.30;;;;;;;3.57;73.82;101307.28;4997433;28;20456;-54
2021/11/23 06:38:28;;;;;;;24.60;16.55;;;;;;;3.58;73.74;101314.19;4997942;28;20129;-55
2021/11/23 06:41:03;;;;;;;25.08;14.30;;;;;;;3.60;73.57;101319.41;4997770;28;20069;-54
2021/11/23 06:43:37;;;;;;;;;;;;;;;3.60;74.28;101311.72;5015493;28;20108;-54
2021/11/23 06:46:08;;;;;;;21.30;15.13;;;;;;;3.58;73.78;101314.19;4997621;28;19921;-54
2021/11/23 06:48:42;;;;;;;20.98;14.57;;;;;;;3.61;73.65;101316.03;5015140;28;20034;-54
2021/11/23 06:51:07;;;;;;;19.55;13.77;;;;;;;3.61;74.13;101318.63;5013696;28;20507;-54
2021/11/23 06:53:38;;;;;;;22.92;16.92;;;;;;;3.61;74.12;101319.53;5013756;28;20030;-55
2021/11/23 06:56:09;;;;;;;19.77;14.30;;;;;;;3.61;74.19;101310.91;4997383;28;20056;-54
2021/11/23 06:58:44;;;;;;;19.00;14.35;;;;;;;3.61;74.18;101316.03;5029742;28;20033;-55
2021/11/23 07:01:09;;;;;;;22.88;14.27;;;;;;;3.63;74.67;101317.03;4997597;28;20400;-54
2021/11/23 07:03:39;;;;;;;24.73;15.15;;;;;;;3.62;74.08;101316.16;5014135;28;20046;-54
2021/11/23 07:06:10;;;;;;;23.98;15.35;;;;;;;3.63;73.95;101327.28;5029938;28;20509;-54
2021/11/23 07:08:44;;;;;;;25.03;15.80;;;;;;;3.63;74.28;101322.16;5013543;28;20049;-54
2021/11/23 07:11:17;;;;;;;;;;;;;;;3.61;74.46;101322.09;5013810;28;20038;-55
2021/11/23 07:13:49;;;;;;;25.20;17.90;;;;;;;3.63;74.05;101322.16;5013685;28;19917;-54
2021/11/23 07:16:20;;;;;;;24.10;15.45;;;;;;;3.64;74.54;101323.94;5013603;28;20041;-54
2021/11/23 07:18:51;;;;;;;22.15;16.25;;;;;;;3.64;74.34;101326.50;5013209;28;20033;-54
2021/11/23 07:21:23;;;;;;;29.15;14.23;;;;;;;3.65;73.85;101329.19;4996513;28;20048;-54
2021/11/23 07:23:58;;;;;;;20.42;13.50;;;;;;;3.65;74.11;101329.19;4996773;28;20041;-55
2021/11/23 07:26:32;;;;;;;25.33;14.70;;;;;;;3.68;73.74;101332.72;5014248;28;20041;-54
2021/11/23 07:29:04;;;;;;;24.38;14.73;;;;;;;3.66;74.56;101335.19;5014387;28;20038;-54
2021/11/23 07:31:31;;;;;;;21.98;15.55;;;;;;;3.67;74.67;101336.97;4996500;28;20044;-54
2021/11/23 07:34:02;;;;;;;25.33;15.75;;;;;;;3.67;73.86;101339.53;5012641;28;20033;-54
2021/11/23 07:36:34;;;;;;;23.42;14.75;;;;;;;3.66;73.96;101338.63;5029269;28;20042;-55
2021/11/23 07:39:04;;;;;;;21.27;14.10;;;;;;;3.67;74.45;101342.09;5014068;28;20045;-54
2021/11/23 07:41:32;;;;;;;21.52;14.13;;;;;;;3.69;74.47;101343.09;5012472;28;20042;-54
2021/11/23 07:44:03;;;;;;;24.38;15.20;;;;;;;3.71;74.43;101348.31;4996343;28;20053;-54
2021/11/23 07:46:31;;;;;;;22.60;14.75;;;;;;;3.72;73.77;101344.94;4996724;28;20382;-54
2021/11/23 07:48:57;;;;;;;28.48;15.20;;;;;;;3.72;74.41;101355.22;4996181;28;20038;-54
2021/11/23 07:51:25;;;;;;;24.60;14.73;;;;;;;3.72;74.51;101353.56;5013876;28;20065;-54
2021/11/23 07:53:52;;;;;;;22.75;13.90;;;;;;;3.73;74.59;101349.28;4996008;28;20030;-54
2021/11/23 07:56:17;;;;;;;23.77;15.13;;;;;;;3.73;74.16;101357.91;5014181;28;20052;-54
2021/11/23 07:58:55;;;;;;;24.92;15.55;;;;;;;3.74;74.42;101351.06;5028957;28;20045;-54
2021/11/23 08:01:29;;;;;;;24.75;15.77;;;;;;;3.72;74.15;101358.69;5012690;28;20077;-57
2021/11/23 08:04:00;;;;;;;26.45;15.80;;;;;;;3.75;74.41;101352.84;5012610;28;20057;-54
2021/11/23 08:06:31;;;;;;;21.67;14.70;;;;;;;3.75;74.74;101363.09;5014143;28;20489;-54
2021/11/23 08:09:05;;;;;;;24.95;16.67;;;;;;;3.75;74.57;101360.53;4996655;28;20433;-54
2021/11/23 08:11:34;;;;;;;;;;;;;;;3.75;74.56;101363.09;5014246;28;20067;-54
2021/11/23 08:14:02;;;;;;;22.60;14.90;;;;;;;3.74;74.72;101364.78;5012225;28;20012;-54
2021/11/23 08:16:28;;;;;;;26.02;16.08;;;;;;;3.74;73.89;101369.03;5012690;28;20072;-54
2021/11/23 08:18:54;;;;;;;23.13;15.40;;;;;;;3.75;74.37;101365.69;5013377;28;20038;-54
2021/11/23 08:21:24;;;;;;;22.02;14.85;;;;;;;3.76;74.21;101370.88;5013601;28;20034;-54
2021/11/23 08:23:53;;;;;;;23.15;15.65;;;;;;;3.76;74.40;101376.00;4996110;28;20445;-54
2021/11/23 08:26:18;;;;;;;26.13;16.25;;;;;;;3.76;74.16;101370.03;4995995;28;20513;-54
2021/11/23 08:28:48;;;;;;;23.05;14.80;;;;;;;3.77;74.19;101369.22;5013437;28;20038;-54
2021/11/23 08:31:22;;;;;;;23.23;15.60;;;;;;;3.77;74.53;101377.78;4995838;28;20057;-54
2021/11/23 08:33:49;;;;;;;23.98;16.02;;;;;;;3.76;74.19;101370.88;5012040;28;20038;-54
2021/11/23 08:36:16;;;;;;;23.20;16.70;;;;;;;3.75;74.43;101373.38;5012383;28;20129;-54
2021/11/23 08:38:50;;;;;;;25.48;15.65;;;;;;;3.74;74.38;101372.47;5012279;28;20049;-55
2021/11/23 08:41:17;;;;;;;25.75;16.33;;;;;;;3.74;74.54;101369.03;4995854;28;20057;-54
2021/11/23 08:43:42;;;;;;;25.15;16.08;;;;;;;3.75;74.02;101375.94;4995823;28;20117;-54
2021/11/23 08:46:18;;;;;;;24.05;15.63;;;;;;;3.76;74.26;101380.28;5012423;28;20062;-54
2021/11/23 08:48:46;;;;;;;24.83;16.65;;;;;;;3.76;74.78;101385.41;5013379;28;20065;-54
2021/11/23 08:51:18;;;;;;;24.52;17.60;;;;;;;3.75;74.79;101375.94;5013390;28;20038;-54
2021/11/23 08:53:51;;;;;;;;;;;;;;;3.75;74.78;101378.50;4996324;28;20415;-54
2021/11/23 08:56:33;;;;;;;22.85;15.73;;;;;;;3.74;74.11;101376.72;4995727;28;19917;-54
2021/11/23 08:59:13;;;;;;;29.70;16.83;;;;;;;3.74;74.30;101382.72;5012235;28;20084;-54
2021/11/23 09:01:52;;;;;;;25.73;15.52;;;;;;;3.74;74.28;101374.16;4996169;28;20045;-54
2021/11/23 09:04:20;;;;;;;24.15;16.75;;;;;;;3.75;74.04;101381.06;4995319;28;20050;-54
2021/11/23 09:06:55;;;;;;;27.75;17.45;;;;;;;3.78;74.47;101383.84;4995566;28;20034;-54
2021/11/23 09:09:32;;;;;;;23.92;17.17;;;;;;;3.78;74.29;101376.13;5012102;28;20077;-55
2021/11/23 09:12:08;;;;;;;33.05;17.98;;;;;;;3.80;74.54;101382.25;5012058;28;20088;-55
2021/11/23 09:14:44;;;;;;;27.83;17.05;;;;;;;3.81;74.71;101377.22;5011969;28;20038;-54
2021/11/23 09:17:14;;;;;;;26.33;15.90;;;;;;;3.83;74.21;101379.00;5015428;28;20038;-54
2021/11/23 09:19:48;;;;;;;24.02;16.45;;;;;;;3.84;74.41;101391.03;4999186;28;20125;-54
2021/11/23 09:22:19;;;;;;;28.33;16.98;;;;;;;3.85;74.70;101385.13;5016443;28;20481;-55
2021/11/23 09:24:53;;;;;;;28.83;17.08;;;;;;;3.87;74.84;101393.81;5015381;28;20050;-54
2021/11/23 09:27:24;;;;;;;;;;;;;;;3.86;74.94;101392.91;5016781;28;20030;-54
2021/11/23 09:29:59;;;;;;;29.08;17.40;;;;;;;3.86;74.57;101387.75;5015484;28;19921;-55
2021/11/23 09:32:38;;;;;;;25.50;16.98;;;;;;;3.88;74.69;101396.44;5015559;28;20030;-54
2021/11/23 09:35:19;;;;;;;31.00;17.08;;;;;;;3.90;75.05;101388.84;5031464;28;20037;-55
2021/11/23 09:37:53;;;;;;;26.25;17.55;;;;;;;3.89;75.05;101390.53;5015964;28;20046;-55
2021/11/23 09:40:29;;;;;;;25.90;17.48;;;;;;;3.89;75.15;101393.09;5015343;28;20394;-54
2021/11/23 09:43:03;;;;;;;26.27;16.38;;;;;;;3.88;74.64;101395.59;5016435;28;20038;-55
2021/11/23 09:45:32;;;;;;;24.17;17.23;;;;;;;3.90;74.41;101383.72;5016254;28;20046;-54
2021/11/23 09:48:06;;;;;;;27.02;16.42;;;;;;;3.89;75.09;101387.97;5016016;28;20037;-54
2021/11/23 09:50:45;;;;;;;23.60;17.40;;;;;;;3.90;75.25;101386.28;5015053;28;20033;-54
2021/11/23 09:53:21;;;;;;;24.20;16.73;;;;;;;3.91;74.83;101383.84;5016190;28;20041;-54
2021/11/23 09:55:53;;;;;;;29.63;16.63;;;;;;;3.91;74.47;101391.53;5014967;28;20085;-54
2021/11/23 09:58:20;;;;;;;25.70;16.48;;;;;;;3.93;74.88;101389.94;5014953;28;20113;-54
2021/11/23 10:01:00;;;;;;;28.70;18.13;;;;;;;3.92;74.66;101385.59;5015699;28;20029;-55
2021/11/23 10:03:33;;;;;;;28.10;16.50;;;;;;;3.94;74.34;101394.28;5015650;28;20386;-55
2021/11/23 10:06:08;;;;;;;30.80;16.75;;;;;;;3.95;74.98;101392.59;4997970;28;20045;-55
2021/11/23 10:08:49;;;;;;;24.02;15.82;;;;;;;3.95;74.46;101390.94;5014409;28;20473;-54
2021/11/23 10:11:44;;;;;;;27.05;17.83;;;;;;;3.97;74.57;101388.47;5014232;28;20034;-54
2021/11/23 10:14:13;;;;;;;26.10;16.45;;;;;;;3.98;74.53;101390.25;5010731;28;20133;-54
2021/11/23 10:16:43;;;;;;;28.42;17.50;;;;;;;3.98;74.71;101387.69;4997798;28;20038;-54
2021/11/23 10:19:20;;;;;;;24.88;15.85;;;;;;;3.97;74.94;101379.06;5015538;28;20041;-55
2021/11/23 10:21:53;;;;;;;28.73;17.88;;;;;;;3.99;75.21;101383.41;5031347;28;20053;-55
2021/11/23 10:24:34;;;;;;;28.65;16.52;;;;;;;3.99;74.57;101381.75;4998371;28;20034;-54
2021/11/23 10:27:20;;;;;;;25.27;16.88;;;;;;;3.99;75.16;101384.31;5015463;28;20045;-54
2021/11/23 10:29:57;;;;;;;25.30;16.93;;;;;;;4.01;75.16;101381.84;5015332;28;20033;-54
2021/11/23 10:32:29;;;;;;;24.35;16.13;;;;;;;4.01;74.79;101377.63;5013712;28;20026;-53
2021/11/23 10:35:22;;;;;;;28.17;17.38;;;;;;;4.02;75.06;101381.97;4997747;28;20404;-54
2021/11/23 10:37:47;;;;;;;26.92;16.15;;;;;;;4.02;74.34;101374.25;5015183;28;20045;-54
2021/11/23 10:40:18;;;;;;;21.17;15.15;;;;;;;4.03;75.39;101377.69;5014951;28;20069;-54
2021/11/23 10:42:58;;;;;;;25.48;16.63;;;;;;;4.03;74.87;101382.84;4997435;28;20136;-54
2021/11/23 10:45:41;;;;;;;23.75;14.10;;;;;;;4.04;74.82;101371.78;5015121;28;20037;-55
2021/11/23 10:48:14;;;;;;;24.60;14.95;;;;;;;4.07;74.56;101377.13;5013855;28;20493;-55
2021/11/23 10:51:03;;;;;;;30.17;17.15;;;;;;;4.06;74.66;101373.66;5013725;28;20401;-55
2021/11/23 10:53:42;;;;;;;25.25;16.52;;;;;;;4.06;75.38;101370.22;5015168;28;20033;-54
2021/11/23 10:56:27;;;;;;;28.10;15.25;;;;;;;4.07;75.01;101372.84;4997433;28;20038;-54
2021/11/23 10:58:58;;;;;;;29.45;16.08;;;;;;;4.07;75.09;101369.41;5014738;28;20383;-54
2021/11/23 11:01:32;;;;;;;27.95;17.13;;;;;;;4.09;74.44;101363.59;4996956;28;20132;-54
2021/11/23 11:04:09;;;;;;;22.25;15.10;;;;;;;4.09;74.63;101365.28;4997321;28;20062;-55
2021/11/23 11:06:40;;;;;;;30.30;17.00;;;;;;;4.12;74.67;101362.91;5029815;28;20034;-54
2021/11/23 11:09:13;;;;;;;24.75;16.40;;;;;;;4.14;74.77;101369.00;4996899;28;20049;-54
2021/11/23 11:11:38;;;;;;;23.50;15.27;;;;;;;4.14;74.96;101358.72;5013242;28;20034;-54
2021/11/23 11:14:09;;;;;;;29.73;15.73;;;;;;;4.16;75.23;101357.16;5014349;28;20033;-54
2021/11/23 11:16:40;;;;;;;24.25;16.58;;;;;;;4.17;74.68;101358.06;4997226;28;20038;-54
2021/11/23 11:19:13;;;;;;;22.60;15.23;;;;;;;4.18;74.91;101355.59;5013127;28;20048;-54
2021/11/23 11:21:48;;;;;;;22.27;15.45;;;;;;;4.20;74.71;101353.13;5014382;28;20034;-54
2021/11/23 11:25:15;;;;;;;37.90;17.98;;;;;;;4.19;74.72;101344.53;5029698;28;20145;-54
2021/11/23 11:27:47;;;;;;;28.03;15.43;;;;;;;4.22;74.75;101351.53;4998617;28;20053;-55
2021/11/23 11:30:31;;;;;;;27.65;17.65;;;;;;;4.21;75.57;101342.03;5013069;28;20034;-55
2021/11/23 11:33:11;;;;;;;28.60;17.20;;;;;;;4.20;74.52;101341.16;5013384;28;20147;-55
2021/11/23 11:35:49;;;;;;;24.52;16.50;;;;;;;4.21;74.95;101342.94;4996829;28;20041;-54
2021/11/23 11:38:37;;;;;;;26.88;17.20;;;;;;;4.24;74.93;101347.38;5014046;28;20056;-54
2021/11/23 11:41:38;;;;;;;27.25;17.10;;;;;;;4.24;75.17;101337.09;5013904;28;20061;-55
2021/11/23 11:44:22;;;;;;;25.50;15.48;;;;;;;4.24;74.93;101338.00;4996161;28;20089;-53